Time;durP1;ratioP1;P1;durP2;ratioP2;P2;SDS_P1;SDS_P2;PMS_P1;PMS_P2;Temp;Humidity;BMP_temperature;BMP_pressure;BME280_temperature;BME280_humidity;BME280_pressure;Samples;Min_cycle;Max_cycle;Signal;HPM_P1;HPM_P2
2023/05/31 00:01:28;;;;;;;1999.90;999.90;;;12.80;99.90;;;;;;5068543;28;20433;-70
2023/05/31 00:03:55;;;;;;;1999.90;999.90;;;12.90;99.90;;;;;;5086513;28;20958;-71
2023/05/31 00:06:22;;;;;;;1999.90;999.90;;;12.80;99.90;;;;;;5084805;28;20915;-71
2023/05/31 00:08:49;;;;;;;1999.90;999.90;;;12.50;99.90;;;;;;5084386;28;20429;-72
2023/05/31 00:11:16;;;;;;;1999.90;999.90;;;12.40;99.90;;;;;;5080618;28;20484;-70
2023/05/31 00:13:42;;;;;;;1999.90;999.90;;;12.40;99.90;;;;;;5081806;28;20508;-70
2023/05/31 00:16:11;;;;;;;1999.90;999.90;;;12.50;99.90;;;;;;5085787;28;20487;-71
2023/05/31 00:18:37;;;;;;;1999.90;999.90;;;12.60;99.90;;;;;;5074397;28;20431;-70
2023/05/31 00:21:04;;;;;;;1999.90;999.90;;;12.30;99.90;;;;;;5085031;28;20433;-70
2023/05/31 00:23:32;;;;;;;1999.90;999.90;;;11.90;99.90;;;;;;5081360;28;20643;-70
2023/05/31 00:25:59;;;;;;;1999.90;999.90;;;11.90;99.90;;;;;;5077918;28;20428;-71
2023/05/31 00:28:25;;;;;;;1999.90;999.90;;;11.70;99.90;;;;;;5082008;28;20826;-70
2023/05/31 00:30:52;;;;;;;1999.90;999.90;;;11.80;99.90;;;;;;5081015;28;20494;-70
2023/05/31 00:33:18;;;;;;;1999.90;999.90;;;11.60;99.90;;;;;;5088264;28;20434;-71
2023/05/31 00:35:45;;;;;;;1999.90;999.90;;;11.50;99.90;;;;;;5090382;28;20475;-71
2023/05/31 00:38:13;;;;;;;1999.90;999.90;;;11.60;99.90;;;;;;5081383;28;20476;-70
2023/05/31 00:40:41;;;;;;;1999.90;999.90;;;11.60;99.90;;;;;;5084404;28;20503;-71
2023/05/31 00:43:08;;;;;;;1999.90;999.90;;;11.50;99.90;;;;;;5086253;28;20896;-71
2023/05/31 00:45:34;;;;;;;1999.90;999.90;;;11.40;99.90;;;;;;5086201;28;20483;-70
2023/05/31 00:48:02;;;;;;;1999.90;999.90;;;11.60;99.90;;;;;;5089753;28;20832;-70
2023/05/31 00:50:29;;;;;;;1999.90;999.90;;;11.50;99.90;;;;;;5085192;28;20460;-71
2023/05/31 00:52:57;;;;;;;1999.90;999.90;;;11.40;99.90;;;;;;5090211;28;20461;-70
2023/05/31 00:55:24;;;;;;;1999.90;999.90;;;11.20;99.90;;;;;;5088163;28;20486;-70
2023/05/31 00:57:53;;;;;;;1999.90;999.90;;;11.20;99.90;;;;;;5085489;28;20517;-71
2023/05/31 01:00:20;;;;;;;1999.90;999.90;;;11.20;99.90;;;;;;5087504;28;20436;-72
2023/05/31 01:02:46;;;;;;;1999.90;999.90;;;11.40;99.90;;;;;;5082540;28;20480;-71
2023/05/31 01:05:13;;;;;;;1999.90;999.90;;;11.20;99.90;;;;;;5087736;28;20426;-70
2023/05/31 01:07:40;;;;;;;1999.90;999.90;;;11.20;99.90;;;;;;5086709;28;20431;-70
2023/05/31 01:10:08;;;;;;;1999.90;999.90;;;11.20;99.90;;;;;;5083532;28;20801;-70
2023/05/31 01:12:43;;;;;;;1999.90;999.90;;;11.10;99.90;;;;;;5089453;28;21108;-71
2023/05/31 01:15:17;;;;;;;1999.90;999.90;;;11.00;99.90;;;;;;5085549;28;20479;-71
2023/05/31 01:17:51;;;;;;;1999.90;999.90;;;10.90;99.90;;;;;;5085160;28;20434;-71
2023/05/31 01:20:21;;;;;;;1999.90;999.90;;;11.00;99.90;;;;;;5080931;28;20494;-72
2023/05/31 01:23:02;;;;;;;1999.90;999.90;;;11.10;99.90;;;;;;5081814;28;20477;-71
2023/05/31 01:25:58;;;;;;;1999.90;999.90;;;11.40;99.90;;;;;;5083508;28;20442;-71
2023/05/31 01:28:27;;;;;;;1999.90;999.90;;;11.30;99.90;;;;;;5077397;28;20426;-70
2023/05/31 01:30:56;;;;;;;1999.90;999.90;;;11.40;99.90;;;;;;5071866;28;20444;-71
2023/05/31 01:33:23;;;;;;;1999.90;999.90;;;11.40;99.90;;;;;;5080188;28;20487;-71
2023/05/31 01:35:50;;;;;;;1999.90;999.90;;;11.60;99.90;;;;;;5079075;28;20498;-70
2023/05/31 01:38:16;;;;;;;1999.90;999.90;;;11.60;99.90;;;;;;5084321;28;20430;-70
2023/05/31 01:40:43;;;;;;;1999.90;999.90;;;11.60;99.90;;;;;;5079728;28;20430;-71
2023/05/31 01:43:11;;;;;;;1999.90;999.90;;;11.70;99.90;;;;;;5078994;28;20430;-71
2023/05/31 01:45:40;;;;;;;1999.90;999.90;;;11.80;99.90;;;;;;5083221;28;20426;-70
2023/05/31 01:48:09;;;;;;;1999.90;999.90;;;11.70;99.90;;;;;;5089006;28;20421;-70
2023/05/31 01:50:37;;;;;;;1999.90;999.90;;;11.70;99.90;;;;;;5083638;28;20503;-71
2023/05/31 01:53:04;;;;;;;1999.90;999.90;;;11.40;99.90;;;;;;5085220;28;20432;-70
2023/05/31 01:55:31;;;;;;;1999.90;999.90;;;11.30;99.90;;;;;;5084545;28;20427;-70
2023/05/31 01:58:00;;;;;;;1999.90;999.90;;;11.30;99.90;;;;;;5079288;28;20789;-68
2023/05/31 02:00:27;;;;;;;1999.90;999.90;;;11.30;99.90;;;;;;5081666;28;20430;-70
2023/05/31 02:02:56;;;;;;;1999.90;999.90;;;11.10;99.90;;;;;;5077127;28;20483;-70
2023/05/31 02:05:22;;;;;;;1999.90;999.90;;;10.80;99.90;;;;;;5088981;28;20509;-70
2023/05/31 02:07:49;;;;;;;1999.90;999.90;;;10.70;99.90;;;;;;5088473;28;20444;-71
2023/05/31 02:10:16;;;;;;;1999.90;999.90;;;10.90;99.90;;;;;;5077805;28;20483;-71
2023/05/31 02:12:43;;;;;;;1999.90;999.90;;;11.00;99.90;;;;;;5088483;28;20456;-71
2023/05/31 02:15:12;;;;;;;1999.90;999.90;;;11.10;99.90;;;;;;5088222;28;20482;-70
2023/05/31 02:17:42;;;;;;;1999.90;999.90;;;10.80;99.90;;;;;;5084215;28;20436;-70
2023/05/31 02:20:12;;;;;;;1999.90;999.90;;;10.70;99.90;;;;;;5082758;28;20433;-71
2023/05/31 02:22:39;;;;;;;1999.90;999.90;;;10.50;99.90;;;;;;5087951;28;20469;-71
2023/05/31 02:25:08;;;;;;;1999.90;999.90;;;10.50;99.90;;;;;;5087691;28;20888;-70
2023/05/31 02:27:34;;;;;;;1999.90;999.90;;;10.40;99.90;;;;;;5084477;28;20521;-67
2023/05/31 02:30:01;;;;;;;1999.90;999.90;;;10.20;99.90;;;;;;5083868;28;20425;-68
2023/05/31 02:32:27;;;;;;;1999.90;999.90;;;10.00;99.90;;;;;;5087730;28;20795;-68
2023/05/31 02:34:54;;;;;;;1999.90;999.90;;;9.90;99.90;;;;;;5088271;28;20429;-68
2023/05/31 02:37:22;;;;;;;1999.90;999.90;;;9.90;99.90;;;;;;5079034;28;20931;-68
2023/05/31 02:39:49;;;;;;;1999.90;999.90;;;10.00;99.90;;;;;;5084455;28;20773;-68
2023/05/31 02:42:15;;;;;;;1999.90;999.90;;;10.10;99.90;;;;;;5087207;28;20444;-69
2023/05/31 02:44:42;;;;;;;1999.90;999.90;;;10.30;99.90;;;;;;5087530;28;20960;-71
2023/05/31 02:47:08;;;;;;;1999.90;999.90;;;10.40;99.90;;;;;;5086762;28;20425;-72
2023/05/31 02:49:35;;;;;;;1999.90;999.90;;;10.40;99.90;;;;;;5080928;28;20427;-71
2023/05/31 02:52:01;;;;;;;1999.90;999.90;;;10.20;99.90;;;;;;5077783;28;20824;-67
2023/05/31 02:54:29;;;;;;;1999.90;999.90;;;10.10;99.90;;;;;;5082111;28;20422;-67
2023/05/31 02:56:56;;;;;;;1999.90;999.90;;;10.00;99.90;;;;;;5086760;28;20440;-69
2023/05/31 02:59:23;;;;;;;1999.90;999.90;;;10.00;99.90;;;;;;5084449;28;20804;-67
2023/05/31 03:01:50;;;;;;;1999.90;999.90;;;10.10;99.90;;;;;;5080641;28;20432;-68
2023/05/31 03:04:16;;;;;;;1999.90;999.90;;;9.90;99.90;;;;;;5078582;28;20491;-68
2023/05/31 03:06:43;;;;;;;1999.90;999.90;;;9.60;99.90;;;;;;5087393;28;21053;-66
2023/05/31 03:09:14;;;;;;;1999.90;999.90;;;9.60;99.90;;;;;;5084712;28;21194;-68
2023/05/31 03:11:41;;;;;;;1999.90;999.90;;;9.50;99.90;;;;;;5084622;28;20430;-69
2023/05/31 03:14:08;;;;;;;1999.90;999.90;;;9.60;99.90;;;;;;5085923;28;20425;-68
2023/05/31 03:16:35;;;;;;;1999.90;999.90;;;9.50;99.90;;;;;;5087164;28;20426;-68
2023/05/31 03:19:01;;;;;;;1999.90;999.90;;;9.50;99.90;;;;;;5074602;28;20431;-68
2023/05/31 03:21:28;;;;;;;1999.90;999.90;;;9.40;99.90;;;;;;5083061;28;20487;-68
2023/05/31 03:23:54;;;;;;;1999.90;999.90;;;9.60;99.90;;;;;;5085325;28;20907;-68
2023/05/31 03:26:21;;;;;;;1999.90;999.90;;;9.60;99.90;;;;;;5087336;28;20574;-67
2023/05/31 03:28:49;;;;;;;1999.90;999.90;;;9.50;99.90;;;;;;5085232;28;20422;-68
2023/05/31 03:31:17;;;;;;;1999.90;999.90;;;9.60;99.90;;;;;;5084444;28;20451;-69
2023/05/31 03:33:43;;;;;;;1999.90;999.90;;;9.70;99.90;;;;;;5086939;28;20483;-68
2023/05/31 03:36:10;;;;;;;1999.90;999.90;;;9.60;99.90;;;;;;5084558;28;20496;-69
2023/05/31 03:38:37;;;;;;;1999.90;999.90;;;9.40;99.90;;;;;;5085817;28;20458;-68
2023/05/31 03:41:03;;;;;;;1999.90;999.90;;;9.50;99.90;;;;;;5083886;28;20430;-67
2023/05/31 03:43:30;;;;;;;1999.90;999.90;;;9.50;99.90;;;;;;5072390;28;20726;-68
2023/05/31 03:46:00;;;;;;;1999.90;999.90;;;9.60;99.90;;;;;;5086833;28;20504;-69
2023/05/31 03:48:27;;;;;;;1999.90;999.90;;;9.80;99.90;;;;;;5076889;28;20501;-68
2023/05/31 03:50:53;;;;;;;1999.90;999.90;;;9.90;99.90;;;;;;5075126;28;20800;-68
2023/05/31 03:53:20;;;;;;;1999.90;999.90;;;10.20;99.90;;;;;;5087152;28;20466;-69
2023/05/31 03:55:47;;;;;;;1999.90;999.90;;;9.90;99.90;;;;;;5087153;28;21024;-68
2023/05/31 03:58:13;;;;;;;1999.90;999.90;;;10.10;99.90;;;;;;5086642;28;20425;-67
2023/05/31 04:00:41;;;;;;;1999.90;999.90;;;10.00;99.90;;;;;;5079653;28;20508;-68
2023/05/31 04:03:11;;;;;;;1999.90;999.90;;;10.20;99.90;;;;;;5086501;28;20815;-69
2023/05/31 04:05:38;;;;;;;1999.90;999.90;;;10.30;99.90;;;;;;5089554;28;20453;-68
2023/05/31 04:08:05;;;;;;;1999.90;999.90;;;10.40;99.90;;;;;;5081773;28;20435;-68
2023/05/31 04:10:32;;;;;;;1999.90;999.90;;;10.60;99.90;;;;;;5080840;28;20895;-70
2023/05/31 04:12:59;;;;;;;1999.90;999.90;;;10.70;99.90;;;;;;5090106;28;20911;-70
2023/05/31 04:15:26;;;;;;;1999.90;999.90;;;10.90;99.90;;;;;;5087694;28;20429;-71
2023/05/31 04:17:52;;;;;;;1999.90;999.90;;;10.90;99.90;;;;;;5089033;28;20499;-70
2023/05/31 04:20:20;;;;;;;1999.90;999.90;;;11.00;99.90;;;;;;5081175;28;20436;-71
2023/05/31 04:22:47;;;;;;;1999.90;999.90;;;11.10;99.90;;;;;;5086085;28;20431;-70
2023/05/31 04:25:17;;;;;;;1999.90;999.90;;;11.30;99.90;;;;;;5083587;28;20489;-71
2023/05/31 04:27:44;;;;;;;1999.90;999.90;;;11.40;99.90;;;;;;5084881;28;20462;-71
2023/05/31 04:30:10;;;;;;;1999.90;999.90;;;11.60;99.90;;;;;;5083230;28;20915;-72
2023/05/31 04:32:37;;;;;;;1999.90;999.90;;;12.30;99.90;;;;;;5088264;28;20425;-70
2023/05/31 04:35:05;;;;;;;1999.90;999.90;;;13.10;99.90;;;;;;5090866;28;20490;-70
2023/05/31 04:37:35;;;;;;;1999.90;999.90;;;13.60;99.90;;;;;;5086674;28;20422;-69
2023/05/31 04:40:04;;;;;;;1999.90;999.90;;;13.80;99.90;;;;;;5081962;28;20808;-71
2023/05/31 04:42:31;;;;;;;1999.90;999.90;;;14.40;99.90;;;;;;5086457;28;20433;-71
2023/05/31 04:45:00;;;;;;;1999.90;999.90;;;14.70;99.90;;;;;;5088802;28;20434;-70
2023/05/31 04:47:28;;;;;;;1999.90;999.90;;;15.50;99.90;;;;;;5089691;28;20431;-72
2023/05/31 04:49:56;;;;;;;1999.90;999.90;;;15.50;99.90;;;;;;5087561;28;20850;-71
2023/05/31 04:52:26;;;;;;;1999.90;999.90;;;16.00;99.90;;;;;;5090205;28;20541;-70
2023/05/31 04:54:54;;;;;;;1999.90;999.90;;;15.70;99.90;;;;;;5088161;28;20433;-71
2023/05/31 04:57:20;;;;;;;1999.90;999.90;;;15.60;99.90;;;;;;5084905;28;20919;-70
2023/05/31 04:59:47;;;;;;;1999.90;999.90;;;15.60;99.90;;;;;;5084110;28;20439;-71
2023/05/31 05:02:14;;;;;;;1999.90;999.90;;;16.00;99.90;;;;;;5088216;28;20510;-70
2023/05/31 05:04:41;;;;;;;1999.90;999.90;;;16.40;99.90;;;;;;5082910;28;20472;-71
2023/05/31 05:07:07;;;;;;;1999.90;999.90;;;16.60;99.90;;;;;;5084787;28;21241;-71
2023/05/31 05:09:34;;;;;;;1999.90;999.90;;;16.90;99.90;;;;;;5082871;28;20465;-70
2023/05/31 05:12:02;;;;;;;1999.90;999.90;;;17.60;99.90;;;;;;5086239;28;20430;-70
2023/05/31 05:14:29;;;;;;;1999.90;999.90;;;18.00;99.90;;;;;;5086332;28;20441;-70
2023/05/31 05:16:56;;;;;;;1999.90;999.90;;;17.60;99.90;;;;;;5084682;28;20435;-72
2023/05/31 05:19:22;;;;;;;1999.90;999.90;;;17.50;99.90;;;;;;5107980;23;20476;-74
2023/05/31 05:21:49;;;;;;;1999.90;999.90;;;17.90;99.90;;;;;;5090840;28;20464;-71
2023/05/31 05:24:16;;;;;;;1999.90;999.90;;;17.80;99.90;;;;;;5088141;28;20943;-70
2023/05/31 05:26:43;;;;;;;1999.90;999.90;;;17.80;99.90;;;;;;5090320;28;20434;-68
2023/05/31 05:29:11;;;;;;;1999.90;999.90;;;17.90;99.90;;;;;;5084362;28;20487;-74
2023/05/31 05:31:37;;;;;;;1999.90;999.90;;;18.20;99.90;;;;;;5088808;28;20431;-74
2023/05/31 05:34:04;;;;;;;1999.90;999.90;;;18.30;99.90;;;;;;5090753;28;20845;-73
2023/05/31 05:36:31;;;;;;;1999.90;999.90;;;18.00;99.90;;;;;;5088648;28;20423;-75
2023/05/31 05:39:03;;;;;;;1999.90;999.90;;;18.00;99.90;;;;;;5088356;28;20978;-72
2023/05/31 05:41:30;;;;;;;1999.90;999.90;;;18.20;99.90;;;;;;5090365;28;20426;-74
2023/05/31 05:43:57;;;;;;;1999.90;999.90;;;18.30;99.90;;;;;;5083137;28;20983;-73
2023/05/31 05:46:25;;;;;;;1999.90;999.90;;;18.50;99.90;;;;;;5074397;28;20434;-74
2023/05/31 05:48:51;;;;;;;1999.90;999.90;;;18.60;99.90;;;;;;5088190;28;20422;-74
2023/05/31 05:51:18;;;;;;;1999.90;999.90;;;18.50;99.90;;;;;;5088186;28;20465;-72
2023/05/31 05:53:45;;;;;;;1999.90;999.90;;;18.20;99.90;;;;;;5089765;28;20487;-71
2023/05/31 05:56:13;;;;;;;1999.90;999.90;;;17.80;99.90;;;;;;5081554;28;20484;-73
2023/05/31 05:58:39;;;;;;;1999.90;999.90;;;17.90;99.90;;;;;;5084641;28;20440;-73
2023/05/31 06:01:06;;;;;;;1999.90;999.90;;;18.30;99.90;;;;;;5086762;28;20928;-72
2023/05/31 06:03:34;;;;;;;1999.90;999.90;;;18.20;99.90;;;;;;5084531;28;20529;-72
2023/05/31 06:06:01;;;;;;;1999.90;999.90;;;18.00;99.90;;;;;;5085633;28;20438;-74
2023/05/31 06:08:27;;;;;;;1999.90;999.90;;;17.90;99.90;;;;;;5085414;28;20427;-71
2023/05/31 06:10:54;;;;;;;1999.90;999.90;;;17.80;99.90;;;;;;5084672;28;20434;-72
2023/05/31 06:13:20;;;;;;;1999.90;999.90;;;17.90;99.90;;;;;;5082116;28;20415;-72
2023/05/31 06:15:47;;;;;;;1999.90;999.90;;;18.10;99.90;;;;;;5084249;28;20438;-72
2023/05/31 06:18:15;;;;;;;1999.90;999.90;;;18.20;99.90;;;;;;5084206;28;20426;-73
2023/05/31 06:20:43;;;;;;;1999.90;999.90;;;18.20;99.90;;;;;;5087607;28;20950;-72
2023/05/31 06:23:10;;;;;;;1999.90;999.90;;;18.20;99.90;;;;;;5091693;28;20433;-73
2023/05/31 06:25:36;;;;;;;1999.90;999.90;;;18.40;99.90;;;;;;5086064;28;20977;-73
2023/05/31 06:28:03;;;;;;;1999.90;999.90;;;18.70;99.90;;;;;;5083729;28;20442;-72
2023/05/31 06:30:30;;;;;;;1999.90;999.90;;;18.70;99.90;;;;;;5088860;28;20429;-73
2023/05/31 06:32:57;;;;;;;1999.90;999.90;;;19.00;99.90;;;;;;5082179;28;20426;-72
2023/05/31 06:35:23;;;;;;;1999.90;999.90;;;18.60;99.90;;;;;;5086685;28;20418;-72
2023/05/31 06:37:52;;;;;;;1999.90;999.90;;;19.00;99.90;;;;;;5083580;28;20465;-73
2023/05/31 06:40:19;;;;;;;1999.90;999.90;;;19.20;99.90;;;;;;5078765;28;20426;-73
2023/05/31 06:42:46;;;;;;;1999.90;999.90;;;18.90;99.90;;;;;;5077482;28;20488;-73
2023/05/31 06:45:12;;;;;;;1999.90;999.90;;;19.10;99.90;;;;;;5079023;28;20428;-72
2023/05/31 06:47:39;;;;;;;1999.90;999.90;;;19.10;99.90;;;;;;5086645;28;20828;-74
2023/05/31 06:50:06;;;;;;;1999.90;999.90;;;19.20;99.90;;;;;;5079389;28;20424;-73
2023/05/31 06:52:33;;;;;;;1999.90;999.90;;;19.00;99.90;;;;;;5086846;28;20512;-73
2023/05/31 06:55:01;;;;;;;1999.90;999.90;;;19.20;99.90;;;;;;5089111;28;20430;-72
2023/05/31 06:57:27;;;;;;;1999.90;999.90;;;19.70;99.90;;;;;;5083924;28;20422;-73
2023/05/31 06:59:54;;;;;;;1999.90;999.90;;;19.90;99.90;;;;;;5083777;28;20502;-73
2023/05/31 07:02:21;;;;;;;1999.90;999.90;;;19.60;99.90;;;;;;5082306;28;20421;-74
2023/05/31 07:04:47;;;;;;;1999.90;999.90;;;19.80;99.90;;;;;;5082518;28;20968;-72
2023/05/31 07:07:14;;;;;;;1999.90;999.90;;;20.10;99.90;;;;;;5073985;28;20461;-74
2023/05/31 07:09:41;;;;;;;1999.90;999.90;;;20.60;99.90;;;;;;5071100;28;20408;-73
2023/05/31 07:12:09;;;;;;;1999.90;999.90;;;20.80;98.80;;;;;;5070791;28;20408;-74
2023/05/31 07:14:37;;;;;;;1999.90;999.90;;;20.80;99.30;;;;;;5087834;28;20415;-74
2023/05/31 07:17:04;;;;;;;1999.90;999.90;;;20.90;99.80;;;;;;5086452;28;20463;-73
2023/05/31 07:19:30;;;;;;;1999.90;999.90;;;20.90;99.40;;;;;;5090675;28;20475;-74
2023/05/31 07:21:57;;;;;;;1999.90;999.90;;;21.30;98.60;;;;;;5090341;28;20826;-73
2023/05/31 07:24:24;;;;;;;1999.90;999.90;;;21.30;97.30;;;;;;5079532;28;20427;-73
2023/05/31 07:26:50;;;;;;;1999.90;999.90;;;21.10;97.90;;;;;;5084532;28;20419;-74
2023/05/31 07:29:18;;;;;;;1999.90;999.90;;;21.30;98.00;;;;;;5087693;28;20414;-74
2023/05/31 07:31:45;;;;;;;1999.90;999.90;;;21.50;98.00;;;;;;5084500;28;20929;-74
2023/05/31 07:34:11;;;;;;;1999.90;999.90;;;21.30;97.70;;;;;;5078447;28;20416;-74
2023/05/31 07:36:39;;;;;;;1999.90;999.90;;;21.40;98.40;;;;;;5069437;28;20489;-73
2023/05/31 07:39:06;;;;;;;1999.90;999.90;;;21.80;98.20;;;;;;5069429;28;20435;-74
2023/05/31 07:41:32;;;;;;;1999.90;999.90;;;22.10;97.50;;;;;;5079806;28;20483;-74
2023/05/31 07:44:00;;;;;;;1999.90;999.90;;;22.50;96.80;;;;;;5081870;28;20413;-74
2023/05/31 07:46:28;;;;;;;1999.90;999.90;;;22.40;95.80;;;;;;5084943;28;20819;-73
2023/05/31 07:48:55;;;;;;;1999.90;999.90;;;22.10;96.00;;;;;;5079211;28;20423;-74
2023/05/31 07:51:21;;;;;;;1999.90;999.90;;;21.80;96.40;;;;;;5077755;28;20442;-73
2023/05/31 07:53:48;;;;;;;1999.90;999.90;;;21.70;96.60;;;;;;5069872;28;20564;-73
2023/05/31 07:56:14;;;;;;;1999.90;999.90;;;21.90;95.90;;;;;;5069829;28;20411;-73
2023/05/31 07:58:41;;;;;;;1999.90;999.90;;;21.90;97.20;;;;;;5073532;28;20777;-74
2023/05/31 08:01:08;;;;;;;1999.90;999.90;;;22.30;96.70;;;;;;5073448;28;20415;-74
2023/05/31 08:03:35;;;;;;;1999.90;999.90;;;22.70;95.50;;;;;;5069812;28;20412;-73
2023/05/31 08:06:02;;;;;;;1999.90;999.90;;;23.10;94.20;;;;;;5069832;28;20465;-74
2023/05/31 08:08:29;;;;;;;1999.90;999.90;;;23.10;94.10;;;;;;5071548;28;20810;-75
2023/05/31 08:10:56;;;;;;;1999.90;999.90;;;23.40;93.90;;;;;;5075213;28;20419;-74
2023/05/31 08:13:24;;;;;;;1999.90;999.90;;;23.00;93.30;;;;;;5069584;28;20460;-73
2023/05/31 08:15:51;;;;;;;1999.90;999.90;;;23.10;93.70;;;;;;5069476;28;20957;-73
2023/05/31 08:18:18;;;;;;;1999.90;999.90;;;22.70;93.00;;;;;;5069589;28;20921;-73
2023/05/31 08:20:46;;;;;;;1999.90;999.90;;;22.60;93.00;;;;;;5017879;28;1747779;-74
2023/05/31 08:23:18;;;;;;;1999.90;999.90;;;22.40;94.20;;;;;;5089399;28;20908;-74
2023/05/31 08:25:44;;;;;;;1999.90;999.90;;;22.90;94.00;;;;;;5082848;28;20443;-73
2023/05/31 08:28:11;;;;;;;1999.90;999.90;;;23.00;93.50;;;;;;5090314;28;20414;-74
2023/05/31 08:30:37;;;;;;;1999.90;999.90;;;22.90;92.70;;;;;;5089090;28;20814;-74
2023/05/31 08:33:04;;;;;;;1999.90;999.90;;;22.60;92.80;;;;;;5082112;28;20409;-73
2023/05/31 08:35:31;;;;;;;1999.90;999.90;;;22.90;93.00;;;;;;5071627;28;20473;-74
2023/05/31 08:37:59;;;;;;;1999.90;999.90;;;23.10;92.30;;;;;;5069781;28;20767;-73
2023/05/31 08:40:26;;;;;;;1999.90;999.90;;;23.20;91.60;;;;;;5069947;28;20419;-74
2023/05/31 08:43:00;;;;;;;1999.90;999.90;;;23.10;91.40;;;;;;5087578;28;20429;-73
2023/05/31 08:45:28;;;;;;;1999.90;999.90;;;22.90;92.20;;;;;;5081729;28;20780;-74
2023/05/31 08:48:02;;;;;;;1999.90;999.90;;;23.20;92.00;;;;;;5090142;28;20418;-74
2023/05/31 08:50:31;;;;;;;1999.90;999.90;;;23.40;91.80;;;;;;5092116;28;20471;-74
2023/05/31 08:52:59;;;;;;;1999.90;999.90;;;23.70;91.10;;;;;;5087236;28;20939;-73
2023/05/31 08:55:27;;;;;;;1999.90;999.90;;;23.70;91.10;;;;;;5091450;28;20414;-73
2023/05/31 08:57:54;;;;;;;1999.90;999.90;;;23.40;90.80;;;;;;5093363;28;20908;-74
2023/05/31 09:00:22;;;;;;;1999.90;999.90;;;23.40;91.50;;;;;;5093719;28;20418;-73
2023/05/31 09:02:50;;;;;;;1999.90;999.90;;;23.80;91.10;;;;;;5084153;28;20440;-73
2023/05/31 09:05:17;;;;;;;1999.90;999.90;;;24.00;90.70;;;;;;5077268;28;20449;-73
2023/05/31 09:07:44;;;;;;;1999.90;999.90;;;23.90;90.10;;;;;;5072945;28;20419;-74
2023/05/31 09:10:14;;;;;;;1999.90;999.90;;;23.90;90.10;;;;;;5073195;28;20411;-73
2023/05/31 09:12:41;;;;;;;1999.90;999.90;;;24.20;90.20;;;;;;5080938;28;20518;-73
2023/05/31 09:15:09;;;;;;;1999.90;999.90;;;24.40;89.80;;;;;;5077770;28;20902;-70
2023/05/31 09:17:35;;;;;;;1999.90;999.90;;;24.40;88.00;;;;;;5085226;28;20519;-73
2023/05/31 09:20:03;;;;;;;1999.90;999.90;;;24.40;86.20;;;;;;5083767;28;20453;-71
2023/05/31 09:22:30;;;;;;;1999.90;999.90;;;24.40;86.10;;;;;;5086846;28;20854;-73
2023/05/31 09:24:57;;;;;;;1999.90;999.90;;;24.30;84.50;;;;;;5075530;28;20519;-73
2023/05/31 09:27:27;;;;;;;1999.90;999.90;;;24.20;85.10;;;;;;5090281;28;20422;-73
2023/05/31 09:29:54;;;;;;;1999.90;999.90;;;24.70;86.80;;;;;;5080579;28;20483;-74
2023/05/31 09:32:22;;;;;;;1999.90;999.90;;;24.70;85.30;;;;;;5087944;28;20452;-73
2023/05/31 09:34:48;;;;;;;1999.90;999.90;;;24.70;86.40;;;;;;5088689;28;20480;-72
2023/05/31 09:37:25;;;;;;;1999.90;999.90;;;24.90;84.30;;;;;;5080757;28;20418;-73
2023/05/31 09:39:55;;;;;;;1999.90;999.90;;;25.20;83.70;;;;;;5085025;28;20426;-73
2023/05/31 09:42:22;;;;;;;1999.90;999.90;;;25.30;82.60;;;;;;5090415;28;20410;-72
2023/05/31 09:44:50;;;;;;;1999.90;999.90;;;25.10;82.80;;;;;;5087817;28;22247;-73
2023/05/31 09:47:17;;;;;;;1999.90;999.90;;;25.30;84.00;;;;;;5075979;28;20802;-73
2023/05/31 09:49:44;;;;;;;1999.90;999.90;;;25.50;83.20;;;;;;5091058;28;20905;-73
2023/05/31 09:52:13;;;;;;;1999.90;999.90;;;25.70;81.90;;;;;;5084728;28;20417;-73
2023/05/31 09:54:39;;;;;;;1999.90;999.90;;;25.30;81.30;;;;;;5093156;28;20753;-70
2023/05/31 09:57:06;;;;;;;1999.90;999.90;;;25.10;81.60;;;;;;5090947;28;20993;-73
2023/05/31 09:59:33;;;;;;;1999.90;999.90;;;24.80;83.00;;;;;;5083085;28;20505;-73
2023/05/31 10:02:01;;;;;;;1999.90;999.90;;;24.30;83.50;;;;;;5086104;28;20426;-73
2023/05/31 10:04:29;;;;;;;1999.90;999.90;;;23.90;86.90;;;;;;5083007;28;20471;-73
2023/05/31 10:06:56;;;;;;;1999.90;999.90;;;23.80;85.30;;;;;;5072006;28;20793;-73
2023/05/31 10:09:22;;;;;;;1999.90;999.90;;;23.70;86.20;;;;;;5078088;28;20437;-70
2023/05/31 10:11:54;;;;;;;1999.90;999.90;;;23.90;85.60;;;;;;5083921;28;20410;-73
2023/05/31 10:14:25;;;;;;;1999.90;999.90;;;24.30;84.80;;;;;;5091360;28;20455;-73
2023/05/31 10:16:54;;;;;;;1999.90;999.90;;;24.60;84.10;;;;;;5080381;28;20421;-73
2023/05/31 10:19:28;;;;;;;1999.90;999.90;;;24.40;83.40;;;;;;5076188;28;20426;-73
2023/05/31 10:21:57;;;;;;;1999.90;999.90;;;24.30;85.40;;;;;;5084161;28;20475;-73
2023/05/31 10:24:27;;;;;;;1999.90;999.90;;;24.50;84.80;;;;;;5082737;28;20427;-73
2023/05/31 10:27:08;;;;;;;1999.90;999.90;;;24.50;83.70;;;;;;5079125;28;20803;-73
2023/05/31 10:29:37;;;;;;;1999.90;999.90;;;24.20;84.10;;;;;;5075936;28;20434;-73
2023/05/31 10:32:11;;;;;;;1999.90;999.90;;;24.20;85.00;;;;;;5080185;28;20415;-73
2023/05/31 10:34:39;;;;;;;1999.90;999.90;;;24.30;84.00;;;;;;5071906;28;20947;-74
2023/05/31 10:37:07;;;;;;;1999.90;999.90;;;24.40;82.70;;;;;;5071461;28;20416;-71
2023/05/31 10:39:40;;;;;;;1999.90;999.90;;;24.40;81.80;;;;;;5075335;28;20429;-74
2023/05/31 10:42:12;;;;;;;1999.90;999.90;;;24.30;81.20;;;;;;5078711;28;20492;-73
2023/05/31 10:44:48;;;;;;;1999.90;999.90;;;24.50;80.90;;;;;;5080101;28;20412;-73
2023/05/31 10:47:19;;;;;;;1999.90;999.90;;;24.80;80.60;;;;;;5071584;28;20770;-73
2023/05/31 10:49:50;;;;;;;1999.90;999.90;;;24.80;80.40;;;;;;5078186;28;20414;-72
2023/05/31 10:52:17;;;;;;;1999.90;999.90;;;24.60;80.60;;;;;;5083226;28;20479;-73
2023/05/31 10:54:44;;;;;;;1999.90;999.90;;;24.80;82.10;;;;;;5091479;28;20505;-74
2023/05/31 10:57:13;;;;;;;1999.90;999.90;;;25.00;79.20;;;;;;5088101;28;20426;-73
2023/05/31 10:59:41;;;;;;;1999.90;999.90;;;25.30;77.50;;;;;;5077999;28;20435;-73
2023/05/31 11:02:10;;;;;;;1999.90;999.90;;;25.20;77.80;;;;;;5076787;28;20976;-73
2023/05/31 11:04:37;;;;;;;1999.90;999.90;;;25.20;77.90;;;;;;5079569;28;20465;-73
2023/05/31 11:07:22;;;;;;;1999.90;999.90;;;25.10;80.70;;;;;;5073038;28;20982;-73
2023/05/31 11:09:58;;;;;;;1999.90;999.90;;;25.40;82.20;;;;;;5079177;28;20518;-73
2023/05/31 11:12:33;;;;;;;1999.90;999.90;;;25.50;82.00;;;;;;5071003;28;20814;-73
2023/05/31 11:15:00;;;;;;;1999.90;999.90;;;25.50;82.00;;;;;;5071047;28;21008;-75
2023/05/31 11:17:27;;;;;;;1999.90;999.90;;;25.50;78.50;;;;;;5072892;28;20427;-75
2023/05/31 11:19:55;;;;;;;1999.90;999.90;;;25.20;77.60;;;;;;5078539;28;20424;-75
2023/05/31 11:22:27;;;;;;;1999.90;999.90;;;25.10;78.10;;;;;;5070880;28;20411;-73
2023/05/31 11:24:57;;;;;;;1999.90;999.90;;;25.00;76.40;;;;;;5071118;28;20411;-74
2023/05/31 11:27:34;;;;;;;1999.90;999.90;;;25.00;77.80;;;;;;5072436;28;20447;-73
2023/05/31 11:30:01;;;;;;;1999.90;999.90;;;24.70;78.80;;;;;;5083415;28;21044;-73
2023/05/31 11:32:58;;;;;;;1999.90;999.90;;;24.80;81.70;;;;;;5091001;28;20409;-74
2023/05/31 11:35:26;;;;;;;1999.90;999.90;;;25.10;79.60;;;;;;4999355;28;20492;-73
2023/05/31 11:38:03;;;;;;;1999.90;999.90;;;25.20;78.30;;;;;;5063443;28;20957;-73
2023/05/31 11:40:31;;;;;;;1999.90;999.90;;;25.30;77.20;;;;;;5085844;28;20561;-73
2023/05/31 11:43:07;;;;;;;1999.90;999.90;;;25.10;77.20;;;;;;5079858;28;20428;-74
2023/05/31 11:45:35;;;;;;;1999.90;999.90;;;24.90;78.60;;;;;;5087900;28;20429;-73
2023/05/31 11:48:45;;;;;;;1999.90;999.90;;;25.00;77.30;;;;;;5081881;28;20475;-73
2023/05/31 11:51:14;;;;;;;1999.90;999.90;;;25.50;76.60;;;;;;5085099;28;20426;-72
2023/05/31 11:53:42;;;;;;;1999.90;999.90;;;25.50;75.50;;;;;;5084363;28;20878;-73
2023/05/31 11:56:12;;;;;;;1999.90;999.90;;;25.70;72.70;;;;;;5082413;28;20431;-74
2023/05/31 11:58:39;;;;;;;1999.90;999.90;;;25.90;74.70;;;;;;5077308;28;20431;-74
2023/05/31 12:01:06;;;;;;;1999.90;999.90;;;26.00;71.70;;;;;;5084308;28;21018;-74
2023/05/31 12:03:32;;;;;;;1999.90;999.90;;;25.90;72.50;;;;;;5081213;28;20856;-74